Kearney, NE

6:30 AM CST on December 08, 2016 (GMT -0600)
Kearney Municipal

Weather History for KEAR - February, 2014

Change the Weather History Date:

Saturday, February 15, 2014

  Actual Average Record
Temperature  
Mean Temperature 41 °F 28 °F  
Max Temperature 55 °F 40 °F 69 °F (1913)
Min Temperature 27 °F 17 °F -17 °F (1909)
Degree Days  
Heating Degree Days 24 37  
Month to date heating degree days 577  
Since 1 July heating degree days 4471  
Cooling Degree Days 0 0  
Month to date cooling degree days 0  
Year to date cooling degree days 0  
Moisture  
Dew Point 25 °F    
Average Humidity 57    
Maximum Humidity 85    
Minimum Humidity 29    
Precipitation  
Precipitation 0.00 in - 1.07 in (1964)
Sea Level Pressure  
Sea Level Pressure 29.90 in    
Wind  
Wind Speed 13 mph (West)    
Max Wind Speed 27 mph    
Max Gust Speed 33 mph    
Visibility 10 miles    
Events      
T = Trace of Precipitation, MM = Missing Value Source: NWS Daily Summary

Daily Weather History Graph

Daily Weather History Graph

Search for Another Location

Airport or City:

Trip Planner

Search our weather history database for the weather conditions in past years. The results will help you decide how hot, cold, wet, or windy it might be!

Date:

Astronomy

Feb. 15, 2014 Rise Set
Actual Time 7:29 AM CST 6:10 PM CST
Civil Twilight 7:01 AM CST 6:39 PM CST
Nautical Twilight 6:29 AM CST 7:11 PM CST
Astronomical Twilight 5:58 AM CST 7:42 PM CST
Moon 7:13 PM CST (2/15) 7:29 AM CST (2/15)
Length of Visible Light 11h 37m
Length of Day
10h 41m
Waxing Gibbous, 99% of the Moon is Illuminated
Feb 15
Waxing Gibbous
Feb 22
Last Quarter
Mar 1
New
Mar 8
First Quarter
Mar 16
Full

Hourly Weather History & Observations

Time (CST) Temp. Windchill Dew Point Humidity Pressure Visibility Wind Dir Wind Speed Gust Speed Precip Events Conditions
12:15 AM 28.4 °F 16.2 °F 23.0 °F 80% 29.95 in 10.0 mi South 17.3 mph - N/A   Overcast
12:35 AM 28.4 °F 18.0 °F 23.0 °F 80% 29.94 in 10.0 mi South 12.7 mph - N/A   Overcast
12:55 AM 28.4 °F 19.1 °F 24.8 °F 86% 29.93 in 10.0 mi South 10.4 mph - N/A   Overcast
1:15 AM 28.4 °F 17.5 °F 23.0 °F 80% 29.92 in 10.0 mi South 13.8 mph - N/A   Overcast
1:35 AM 28.4 °F 18.0 °F 24.8 °F 86% 29.90 in 10.0 mi South 12.7 mph - N/A   Overcast
1:55 AM 30.2 °F 20.2 °F 24.8 °F 80% 29.89 in 10.0 mi South 12.7 mph - N/A   Overcast
2:15 AM 30.2 °F 19.8 °F 24.8 °F 80% 29.88 in 10.0 mi South 13.8 mph - N/A   Overcast
2:35 AM 30.2 °F 21.9 °F 24.8 °F 80% 29.87 in 10.0 mi SSE 9.2 mph - N/A   Overcast
2:55 AM 30.2 °F 18.9 °F 24.8 °F 80% 29.83 in 10.0 mi South 16.1 mph - N/A   Overcast
3:15 AM 30.2 °F 18.9 °F 24.8 °F 80% 29.83 in 10.0 mi South 16.1 mph 20.7 mph N/A   Overcast
3:35 AM 32.0 °F 20.1 °F 24.8 °F 75% 29.82 in 10.0 mi South 19.6 mph 26.5 mph N/A   Overcast
3:55 AM 32.0 °F 20.1 °F 24.8 °F 75% 29.81 in 10.0 mi South 19.6 mph - N/A   Overcast
4:15 AM 32.0 °F 19.8 °F 24.8 °F 75% 29.79 in 10.0 mi South 20.7 mph 25.3 mph N/A   Overcast
4:35 AM 32.0 °F 20.8 °F 24.8 °F 75% 29.78 in 10.0 mi South 17.3 mph - N/A   Overcast
4:55 AM 32.0 °F 21.6 °F 24.8 °F 75% 29.79 in 10.0 mi South 15.0 mph 23.0 mph N/A   Overcast
5:15 AM 32.0 °F 20.8 °F 24.8 °F 75% 29.78 in 10.0 mi South 17.3 mph - N/A   Overcast
5:35 AM 32.0 °F 22.1 °F 24.8 °F 75% 29.78 in 10.0 mi South 13.8 mph 23.0 mph N/A   Overcast
5:55 AM 32.0 °F 22.5 °F 24.8 °F 75% 29.78 in 10.0 mi South 12.7 mph - N/A   Overcast
6:15 AM 32.0 °F 23.6 °F 26.6 °F 80% 29.79 in 10.0 mi SSW 10.4 mph - N/A   Overcast
6:35 AM 32.0 °F 23.6 °F 26.6 °F 80% 29.78 in 10.0 mi South 10.4 mph - N/A   Overcast
6:55 AM 32.0 °F 23.0 °F 26.6 °F 80% 29.77 in 10.0 mi SSW 11.5 mph - N/A   Overcast
7:15 AM 33.8 °F 25.3 °F 26.6 °F 75% 29.79 in 10.0 mi SW 11.5 mph - N/A   Overcast
7:35 AM 33.8 °F 25.8 °F 26.6 °F 75% 29.77 in 10.0 mi SSW 10.4 mph - N/A   Overcast
7:55 AM 33.8 °F 28.6 °F 26.6 °F 75% 29.79 in 10.0 mi SSW 5.8 mph - N/A   Overcast
8:15 AM 33.8 °F 25.8 °F 26.6 °F 75% 29.80 in 10.0 mi SW 10.4 mph 18.4 mph N/A   Overcast
8:35 AM 33.8 °F 29.6 °F 26.6 °F 75% 29.82 in 10.0 mi SW 4.6 mph - N/A   Mostly Cloudy
8:55 AM 35.6 °F 31.7 °F 26.6 °F 70% 29.82 in 10.0 mi WSW 4.6 mph - N/A   Scattered Clouds
9:15 AM 35.6 °F 31.7 °F 26.6 °F 70% 29.83 in 10.0 mi WSW 4.6 mph - N/A   Mostly Cloudy
9:35 AM 35.6 °F 30.7 °F 28.4 °F 75% 29.83 in 10.0 mi WSW 5.8 mph - N/A   Overcast
9:55 AM 37.4 °F 33.8 °F 28.4 °F 70% 29.84 in 10.0 mi West 4.6 mph - N/A   Overcast
10:15 AM 39.2 °F 34.2 °F 28.4 °F 65% 29.84 in 10.0 mi West 6.9 mph - N/A   Overcast
10:35 AM 41.0 °F 35.2 °F 30.2 °F 65% 29.83 in 10.0 mi West 9.2 mph - N/A   Mostly Cloudy
10:55 AM 44.6 °F 40.2 °F 30.2 °F 57% 29.82 in 10.0 mi West 8.1 mph - N/A   Partly Cloudy
11:15 AM 48.2 °F - 33.8 °F 58% 29.83 in 10.0 mi WNW 12.7 mph - N/A   Clear
11:35 AM 51.8 °F - 33.8 °F 50% 29.85 in 10.0 mi NW 20.7 mph 25.3 mph N/A   Clear
11:55 AM 53.6 °F - 33.8 °F 47% 29.86 in 10.0 mi NW 19.6 mph 27.6 mph N/A   Scattered Clouds
12:15 PM 53.6 °F - 32.0 °F 44% 29.86 in 10.0 mi NW 17.3 mph 25.3 mph N/A   Mostly Cloudy
12:35 PM 53.6 °F - 30.2 °F 41% 29.87 in 10.0 mi NNW 19.6 mph 24.2 mph N/A   Mostly Cloudy
12:55 PM 51.8 °F - 28.4 °F 41% 29.87 in 10.0 mi NNW 17.3 mph 24.2 mph N/A   Mostly Cloudy
1:15 PM 51.8 °F - 28.4 °F 41% 29.87 in 10.0 mi NW 24.2 mph 29.9 mph N/A   Scattered Clouds
1:35 PM 51.8 °F - 28.4 °F 41% 29.88 in 10.0 mi NW 17.3 mph 31.1 mph N/A   Partly Cloudy
1:55 PM 53.6 °F - 28.4 °F 38% 29.87 in 10.0 mi NW 23.0 mph 29.9 mph N/A   Clear
2:15 PM 53.6 °F - 28.4 °F 38% 29.87 in 10.0 mi NW 26.5 mph 32.2 mph N/A   Clear
2:35 PM 53.6 °F - 28.4 °F 38% 29.88 in 10.0 mi NW 21.9 mph 32.2 mph N/A   Clear
2:55 PM 53.6 °F - 28.4 °F 38% 29.88 in 10.0 mi NW 26.5 mph 32.2 mph N/A   Clear
3:15 PM 53.6 °F - 28.4 °F 38% 29.89 in 10.0 mi NW 23.0 mph 31.1 mph N/A   Clear
3:35 PM 53.6 °F - 26.6 °F 35% 29.89 in 10.0 mi NW 20.7 mph 35.7 mph N/A   Clear
3:55 PM 55.4 °F - 24.8 °F 31% 29.91 in 10.0 mi NNW 23.0 mph 33.4 mph N/A   Clear
4:15 PM 55.4 °F - 23.0 °F 29% 29.92 in 10.0 mi NW 25.3 mph 35.7 mph N/A   Clear
4:35 PM 53.6 °F - 24.8 °F 33% 29.92 in 10.0 mi NW 23.0 mph 31.1 mph N/A   Clear
4:55 PM 53.6 °F - 23.0 °F 30% 29.92 in 10.0 mi NNW 18.4 mph 33.4 mph N/A   Clear
5:15 PM 53.6 °F - 21.2 °F 28% 29.94 in 10.0 mi NNW 15.0 mph 27.6 mph N/A   Clear
5:35 PM 51.8 °F - 21.2 °F 30% 29.95 in 10.0 mi NNW 19.6 mph 28.8 mph N/A   Clear
5:55 PM 50.0 °F - 21.2 °F 32% 29.96 in 10.0 mi NNW 11.5 mph - N/A   Clear
6:15 PM 46.4 °F 41.9 °F 21.2 °F 37% 29.97 in 10.0 mi NW 9.2 mph - N/A   Clear
6:35 PM 44.6 °F 40.7 °F 21.2 °F 39% 29.99 in 10.0 mi WNW 6.9 mph - N/A   Clear
6:55 PM 42.8 °F 38.0 °F 21.2 °F 42% 30.00 in 10.0 mi West 8.1 mph - N/A   Clear
7:15 PM 41.0 °F 35.2 °F 21.2 °F 45% 30.01 in 10.0 mi WNW 9.2 mph - N/A   Clear
7:35 PM 39.2 °F 33.6 °F 21.2 °F 49% 30.02 in 10.0 mi WNW 8.1 mph - N/A   Clear
7:55 PM 37.4 °F 31.4 °F 21.2 °F 52% 30.02 in 10.0 mi WNW 8.1 mph - N/A   Clear
8:15 PM 37.4 °F 31.4 °F 21.2 °F 52% 30.03 in 10.0 mi West 8.1 mph - N/A   Clear
8:35 PM 39.2 °F 33.6 °F 21.2 °F 49% 30.04 in 10.0 mi West 8.1 mph - N/A   Clear
8:55 PM 37.4 °F 32.8 °F 21.2 °F 52% 30.05 in 10.0 mi West 5.8 mph - N/A   Clear
9:15 PM 37.4 °F 32.1 °F 21.2 °F 52% 30.05 in 10.0 mi NNW 6.9 mph - N/A   Clear
9:35 PM 33.8 °F 27.7 °F 21.2 °F 60% 30.07 in 10.0 mi NW 6.9 mph - N/A   Clear
9:55 PM 33.8 °F 27.0 °F 21.2 °F 60% 30.07 in 10.0 mi NW 8.1 mph - N/A   Clear
10:15 PM 32.0 °F 26.4 °F 21.2 °F 64% 30.09 in 10.0 mi NNW 5.8 mph - N/A   Clear
10:35 PM 32.0 °F 26.4 °F 21.2 °F 64% 30.09 in 10.0 mi NNW 5.8 mph - N/A   Clear
10:55 PM 32.0 °F 25.6 °F 21.2 °F 64% 30.09 in 10.0 mi NNW 6.9 mph - N/A   Clear
11:15 PM 32.0 °F 24.8 °F 21.2 °F 64% 30.09 in 10.0 mi North 8.1 mph - N/A   Clear
11:35 PM 33.8 °F 26.4 °F 24.8 °F 70% 30.09 in 10.0 mi North 9.2 mph - N/A   Clear
11:55 PM 26.6 °F 16.2 °F 21.2 °F 80% 30.09 in 10.0 mi NNE 11.5 mph - N/A   Clear